Time;durP1;ratioP1;P1;durP2;ratioP2;P2;SDS_P1;SDS_P2;PMS_P1;PMS_P2;Temp;Humidity;BMP_temperature;BMP_pressure;BME280_temperature;BME280_humidity;BME280_pressure;Samples;Min_cycle;Max_cycle;Signal;HPM_P1;HPM_P2
2021/05/12 00:02:07;;;;;;;23.42;21.00;;;14.70;96.40;;;;;;5049533;28;20025;-68
2021/05/12 00:04:33;;;;;;;26.65;23.50;;;14.70;96.30;;;;;;5029539;28;20149;-68
2021/05/12 00:06:58;;;;;;;24.08;21.45;;;14.90;96.00;;;;;;5055116;28;20427;-66
2021/05/12 00:09:24;;;;;;;25.45;22.48;;;14.80;96.20;;;;;;5051781;28;20552;-68
2021/05/12 00:11:50;;;;;;;25.25;22.52;;;15.00;95.90;;;;;;5054461;28;20029;-67
2021/05/12 00:14:15;;;;;;;26.02;23.08;;;14.70;96.30;;;;;;5054518;28;20021;-67
2021/05/12 00:16:41;;;;;;;26.67;23.77;;;14.70;96.40;;;;;;5058285;28;20047;-66
2021/05/12 00:19:07;;;;;;;27.77;22.90;;;14.80;96.00;;;;;;5056514;28;20029;-67
2021/05/12 00:21:39;;;;;;;24.77;21.27;;;15.00;96.30;;;;;;5055342;28;20405;-66
2021/05/12 00:24:05;;;;;;;27.10;24.30;;;15.00;95.70;;;;;;5053280;28;20025;-66
2021/05/12 00:26:37;;;;;;;26.63;22.42;;;14.80;96.10;;;;;;5057010;28;20056;-66
2021/05/12 00:29:09;;;;;;;25.90;22.90;;;14.90;96.00;;;;;;5054464;28;20392;-66
2021/05/12 00:31:34;;;;;;;26.30;23.50;;;15.00;95.90;;;;;;5052933;28;20052;-66
2021/05/12 00:34:00;;;;;;;27.63;23.65;;;14.90;96.00;;;;;;5052026;28;20412;-66
2021/05/12 00:36:27;;;;;;;26.98;23.58;;;14.90;95.90;;;;;;5057598;28;20029;-65
2021/05/12 00:38:53;;;;;;;30.02;25.77;;;14.80;96.40;;;;;;5055126;28;20047;-65
2021/05/12 00:41:18;;;;;;;26.45;23.85;;;14.60;96.80;;;;;;5057090;28;20029;-65
2021/05/12 00:43:44;;;;;;;28.42;24.10;;;14.70;96.70;;;;;;5038929;28;20494;-65
2021/05/12 00:46:10;;;;;;;27.45;24.45;;;14.70;96.70;;;;;;5033366;28;20030;-66
2021/05/12 00:48:36;;;;;;;27.98;24.38;;;14.70;96.70;;;;;;5033991;28;20040;-65
2021/05/12 00:51:02;;;;;;;25.88;23.17;;;14.60;97.00;;;;;;5033220;28;20056;-65
2021/05/12 00:53:28;;;;;;;28.83;23.40;;;14.60;97.10;;;;;;5034411;28;20120;-65
2021/05/12 00:55:53;;;;;;;23.63;21.13;;;14.60;97.10;;;;;;5034315;28;20040;-65
2021/05/12 00:58:19;;;;;;;23.80;21.33;;;14.80;96.50;;;;;;5034430;28;20038;-65
2021/05/12 01:00:45;;;;;;;24.13;21.65;;;14.90;96.50;;;;;;5034218;28;20049;-65
2021/05/12 01:03:10;;;;;;;23.13;20.60;;;14.80;96.50;;;;;;5023407;28;20033;-65
2021/05/12 01:05:36;;;;;;;22.20;20.00;;;14.90;96.10;;;;;;5038624;28;20073;-65
2021/05/12 01:08:04;;;;;;;24.38;20.52;;;14.90;96.30;;;;;;5033809;28;20037;-65
2021/05/12 01:10:30;;;;;;;22.42;19.45;;;15.00;95.80;;;;;;5033842;28;20033;-64
2021/05/12 01:12:56;;;;;;;24.13;21.58;;;15.00;96.00;;;;;;5034153;28;20033;-64
2021/05/12 01:15:22;;;;;;;25.02;21.52;;;14.80;96.50;;;;;;5033227;28;20048;-64
2021/05/12 01:17:47;;;;;;;24.40;20.85;;;14.80;96.50;;;;;;5034038;28;20033;-65
2021/05/12 01:20:13;;;;;;;23.00;20.23;;;14.70;96.60;;;;;;5047979;28;20033;-63
2021/05/12 01:22:40;;;;;;;23.35;19.88;;;14.80;96.30;;;;;;5035456;28;20037;-64
2021/05/12 01:25:08;;;;;;;23.63;20.40;;;14.90;96.30;;;;;;5045808;28;20049;-66
2021/05/12 01:27:33;;;;;;;27.98;21.45;;;14.80;96.40;;;;;;5032154;28;20045;-65
2021/05/12 01:29:59;;;;;;;23.58;20.30;;;14.80;96.70;;;;;;5033479;28;20350;-65
2021/05/12 01:32:34;;;;;;;24.42;19.67;;;14.80;96.70;;;;;;5041647;28;20029;-66
2021/05/12 01:35:06;;;;;;;22.50;20.23;;;14.90;96.60;;;;;;5033860;28;20120;-65
2021/05/12 01:37:31;;;;;;;23.65;20.10;;;14.90;96.60;;;;;;5033214;28;20037;-65
2021/05/12 01:39:57;;;;;;;25.23;19.98;;;15.00;96.40;;;;;;5033517;28;20389;-64
2021/05/12 01:42:22;;;;;;;24.95;20.92;;;14.90;96.40;;;;;;5033750;28;20536;-64
2021/05/12 01:44:48;;;;;;;25.38;22.65;;;14.90;96.40;;;;;;5029452;28;20037;-64
2021/05/12 01:47:13;;;;;;;26.48;22.25;;;14.80;96.80;;;;;;5033423;28;20048;-64
2021/05/12 01:49:39;;;;;;;25.45;22.75;;;14.80;96.70;;;;;;5045951;28;20025;-64
2021/05/12 01:52:04;;;;;;;29.88;24.50;;;14.80;96.70;;;;;;5034549;28;20556;-64
2021/05/12 01:54:30;;;;;;;27.35;24.27;;;14.80;96.90;;;;;;5033501;28;20060;-65
2021/05/12 01:56:56;;;;;;;28.75;25.98;;;14.80;97.10;;;;;;5033516;28;20022;-64
2021/05/12 01:59:21;;;;;;;27.83;24.85;;;14.60;97.50;;;;;;5032858;28;20045;-64
2021/05/12 02:01:47;;;;;;;29.80;25.27;;;14.60;97.40;;;;;;5033153;28;20048;-64
2021/05/12 02:04:12;;;;;;;28.40;25.38;;;14.60;97.70;;;;;;5031819;28;20117;-65
2021/05/12 02:06:38;;;;;;;30.27;27.02;;;14.60;97.70;;;;;;5033257;28;20087;-65
2021/05/12 02:09:08;;;;;;;30.05;26.92;;;14.60;97.70;;;;;;5031734;28;20056;-64
2021/05/12 02:11:38;;;;;;;30.10;26.98;;;14.60;97.50;;;;;;5032440;28;20079;-67
2021/05/12 02:14:05;;;;;;;29.67;26.40;;;14.60;97.50;;;;;;5031821;28;20025;-65
2021/05/12 02:16:31;;;;;;;28.77;25.88;;;14.60;97.70;;;;;;5033286;28;20043;-65
2021/05/12 02:18:56;;;;;;;28.00;25.10;;;14.50;97.90;;;;;;5031009;28;20034;-65
2021/05/12 02:21:22;;;;;;;27.40;24.60;;;14.60;97.80;;;;;;5031736;28;20430;-65
2021/05/12 02:23:47;;;;;;;26.10;23.38;;;14.60;97.80;;;;;;5037507;28;20103;-65
2021/05/12 02:26:13;;;;;;;28.75;25.85;;;14.60;97.70;;;;;;5031465;28;20029;-64
2021/05/12 02:28:38;;;;;;;27.13;24.30;;;14.60;97.50;;;;;;5030904;28;20044;-65
2021/05/12 02:31:04;;;;;;;27.35;24.52;;;14.70;97.60;;;;;;5032484;28;20033;-64
2021/05/12 02:33:30;;;;;;;28.98;26.05;;;14.70;97.40;;;;;;5032724;28;20182;-64
2021/05/12 02:35:55;;;;;;;28.25;25.30;;;14.60;97.70;;;;;;5032289;28;20029;-64
2021/05/12 02:38:21;;;;;;;27.90;25.02;;;14.70;97.50;;;;;;5032269;28;20033;-65
2021/05/12 02:40:47;;;;;;;28.23;25.45;;;14.70;97.60;;;;;;5032529;28;20037;-65
2021/05/12 02:43:12;;;;;;;25.65;22.70;;;14.70;97.50;;;;;;5032281;28;20551;-64
2021/05/12 02:45:38;;;;;;;25.80;23.13;;;14.80;97.00;;;;;;5032578;28;20065;-65
2021/05/12 02:48:05;;;;;;;25.00;22.35;;;14.80;97.10;;;;;;5031930;28;20489;-64
2021/05/12 02:50:37;;;;;;;25.30;22.63;;;14.90;96.90;;;;;;5030859;28;20060;-64
2021/05/12 02:53:04;;;;;;;24.70;22.13;;;15.10;96.70;;;;;;5030938;28;20543;-64
2021/05/12 02:55:30;;;;;;;22.52;20.13;;;15.00;96.70;;;;;;5031618;28;20045;-65
2021/05/12 02:57:57;;;;;;;25.48;22.73;;;15.10;96.40;;;;;;5032176;28;20064;-64
2021/05/12 03:00:25;;;;;;;25.63;23.08;;;15.10;96.20;;;;;;5031503;28;20524;-66
2021/05/12 03:02:51;;;;;;;27.40;24.25;;;15.10;96.20;;;;;;5031965;28;20589;-64
2021/05/12 03:05:17;;;;;;;24.55;22.10;;;15.10;96.20;;;;;;5032257;28;20037;-65
2021/05/12 03:07:43;;;;;;;24.20;21.80;;;15.00;96.40;;;;;;5031528;28;20069;-64
2021/05/12 03:10:12;;;;;;;24.08;21.58;;;15.10;96.50;;;;;;5032037;28;20119;-64
2021/05/12 03:12:38;;;;;;;22.67;20.42;;;15.10;96.20;;;;;;5032299;28;20116;-65
2021/05/12 03:15:06;;;;;;;23.63;21.25;;;15.30;95.90;;;;;;5031583;28;20104;-65
2021/05/12 03:17:31;;;;;;;24.13;21.63;;;15.30;95.60;;;;;;5032113;28;20496;-64
2021/05/12 03:19:57;;;;;;;23.52;21.08;;;15.20;95.60;;;;;;5031904;28;20052;-64
2021/05/12 03:22:22;;;;;;;24.95;22.55;;;15.10;96.10;;;;;;5031662;28;20052;-64
2021/05/12 03:24:48;;;;;;;26.73;23.75;;;15.00;96.00;;;;;;5031641;28;20038;-64
2021/05/12 03:27:14;;;;;;;27.73;24.73;;;14.90;96.40;;;;;;5030437;28;20049;-65
2021/05/12 03:29:39;;;;;;;26.85;24.15;;;14.60;97.30;;;;;;5031071;28;20069;-65
2021/05/12 03:32:06;;;;;;;27.60;23.88;;;14.50;97.50;;;;;;5031649;28;20041;-66
2021/05/12 03:34:31;;;;;;;27.40;24.60;;;14.40;97.80;;;;;;5031533;28;20029;-65
2021/05/12 03:36:57;;;;;;;29.90;24.50;;;14.40;97.50;;;;;;5031315;28;20057;-64
2021/05/12 03:39:22;;;;;;;28.40;25.38;;;14.40;97.90;;;;;;5030102;28;20029;-65
2021/05/12 03:41:48;;;;;;;27.05;24.10;;;14.50;97.60;;;;;;5031802;28;20034;-65
2021/05/12 03:44:14;;;;;;;29.85;24.13;;;14.50;97.80;;;;;;5031212;28;20079;-65
2021/05/12 03:46:39;;;;;;;27.70;24.73;;;14.40;97.60;;;;;;5031887;28;20141;-65
2021/05/12 03:49:05;;;;;;;29.10;24.92;;;14.50;97.50;;;;;;5032884;28;20037;-65
2021/05/12 03:51:31;;;;;;;29.60;25.77;;;14.50;97.70;;;;;;5035682;28;20474;-64
2021/05/12 03:53:56;;;;;;;32.05;26.17;;;14.50;97.60;;;;;;5034292;28;20497;-64
2021/05/12 03:56:22;;;;;;;26.73;23.85;;;14.50;97.90;;;;;;5034156;28;20563;-65
2021/05/12 03:58:47;;;;;;;28.60;24.50;;;14.60;97.50;;;;;;5035356;28;20527;-65
2021/05/12 04:01:13;;;;;;;25.65;22.70;;;14.70;97.20;;;;;;5034874;28;20090;-65
2021/05/12 04:03:39;;;;;;;26.00;23.25;;;14.80;96.90;;;;;;5035465;28;20527;-65
2021/05/12 04:06:04;;;;;;;27.45;23.48;;;14.70;97.00;;;;;;5035081;28;20053;-65
2021/05/12 04:08:30;;;;;;;26.50;23.65;;;14.80;96.90;;;;;;5034999;28;20496;-65
2021/05/12 04:10:55;;;;;;;32.42;24.15;;;14.80;96.80;;;;;;5034913;28;20045;-65
2021/05/12 04:13:21;;;;;;;27.95;23.25;;;14.80;96.90;;;;;;5035758;28;20508;-65
2021/05/12 04:15:48;;;;;;;29.15;23.95;;;14.80;96.70;;;;;;5035289;28;20076;-66
2021/05/12 04:18:14;;;;;;;30.00;24.50;;;14.80;96.90;;;;;;5034834;28;20112;-65
2021/05/12 04:20:40;;;;;;;28.65;24.75;;;14.80;96.70;;;;;;5034407;28;20171;-64
2021/05/12 04:23:06;;;;;;;27.88;24.90;;;14.70;97.10;;;;;;5035307;28;20072;-64
2021/05/12 04:25:32;;;;;;;26.35;23.55;;;14.70;97.20;;;;;;5034742;28;20069;-64
2021/05/12 04:27:58;;;;;;;28.73;25.65;;;14.70;97.10;;;;;;5034172;28;20454;-65
2021/05/12 04:30:25;;;;;;;29.23;23.65;;;14.50;97.60;;;;;;5034739;28;20037;-65
2021/05/12 04:32:50;;;;;;;28.52;24.30;;;14.60;97.70;;;;;;5033941;28;20029;-65
2021/05/12 04:35:19;;;;;;;27.60;23.05;;;14.60;97.40;;;;;;5044625;28;20540;-66
2021/05/12 04:37:45;;;;;;;27.98;23.90;;;14.80;97.00;;;;;;5046737;28;20124;-65
2021/05/12 04:40:11;;;;;;;27.00;23.85;;;14.90;96.80;;;;;;5039809;28;20029;-65
2021/05/12 04:42:37;;;;;;;31.08;23.35;;;14.90;96.80;;;;;;5034321;28;20513;-66
2021/05/12 04:45:06;;;;;;;26.33;22.77;;;15.10;96.30;;;;;;5037748;28;20044;-65
2021/05/12 04:47:32;;;;;;;24.83;21.20;;;15.20;96.30;;;;;;5034104;28;20103;-65
2021/05/12 04:49:57;;;;;;;27.60;22.85;;;15.30;96.20;;;;;;5034358;28;20473;-64
2021/05/12 04:52:23;;;;;;;27.05;22.80;;;15.20;96.10;;;;;;5036007;28;20037;-64
2021/05/12 04:54:48;;;;;;;26.30;23.48;;;15.40;95.90;;;;;;5034407;28;20037;-65
2021/05/12 04:57:14;;;;;;;26.05;22.55;;;15.30;95.80;;;;;;5034598;28;20037;-66
2021/05/12 04:59:40;;;;;;;24.42;21.65;;;15.20;96.10;;;;;;5033623;28;20508;-63
2021/05/12 05:02:07;;;;;;;24.80;21.88;;;15.20;96.10;;;;;;5036494;28;20049;-66
2021/05/12 05:04:32;;;;;;;31.80;24.17;;;15.20;95.90;;;;;;5035340;28;20026;-64
2021/05/12 05:06:58;;;;;;;26.02;23.23;;;15.10;96.40;;;;;;5033014;28;20060;-65
2021/05/12 05:09:23;;;;;;;26.63;22.23;;;14.90;96.60;;;;;;5034040;28;20052;-64
2021/05/12 05:11:49;;;;;;;27.17;22.73;;;15.00;96.50;;;;;;5042823;28;20039;-64
2021/05/12 05:14:14;;;;;;;25.67;22.55;;;15.20;96.10;;;;;;5038855;28;20045;-65
2021/05/12 05:16:40;;;;;;;30.63;24.10;;;15.30;95.90;;;;;;5034033;28;20048;-65
2021/05/12 05:19:06;;;;;;;26.23;23.42;;;15.30;95.80;;;;;;5034087;28;20026;-64
2021/05/12 05:21:32;;;;;;;26.08;22.48;;;15.20;96.00;;;;;;5038418;28;20045;-65
2021/05/12 05:23:58;;;;;;;26.42;23.05;;;15.20;96.00;;;;;;5043178;28;20043;-64
2021/05/12 05:26:24;;;;;;;23.52;21.02;;;15.30;96.10;;;;;;5032977;28;20167;-64
2021/05/12 05:28:50;;;;;;;24.90;21.00;;;15.30;95.80;;;;;;5033530;28;20125;-65
2021/05/12 05:31:16;;;;;;;24.85;22.13;;;15.40;95.60;;;;;;5033016;28;20044;-65
2021/05/12 05:33:42;;;;;;;25.88;23.05;;;15.30;95.70;;;;;;5033879;28;20045;-65
2021/05/12 05:36:08;;;;;;;25.42;22.65;;;15.20;95.90;;;;;;5033614;28;20037;-65
2021/05/12 05:38:33;;;;;;;28.75;23.60;;;15.20;95.90;;;;;;5033607;28;20544;-65
2021/05/12 05:40:59;;;;;;;26.70;22.95;;;15.20;96.10;;;;;;5033907;28;20401;-64
2021/05/12 05:43:26;;;;;;;25.92;21.48;;;15.20;96.00;;;;;;5033921;28;20060;-65
2021/05/12 05:45:52;;;;;;;26.27;21.55;;;15.30;95.70;;;;;;5042878;28;20386;-65
2021/05/12 05:48:17;;;;;;;25.33;22.63;;;15.40;95.50;;;;;;5049993;28;20133;-64
2021/05/12 05:50:43;;;;;;;25.70;22.35;;;15.20;95.60;;;;;;5033772;28;20401;-66
2021/05/12 05:53:09;;;;;;;28.95;24.20;;;15.20;95.80;;;;;;5032972;28;20043;-65
2021/05/12 05:55:34;;;;;;;29.05;23.85;;;15.30;95.40;;;;;;5033643;28;20025;-65
2021/05/12 05:58:00;;;;;;;27.35;24.38;;;15.10;96.00;;;;;;5031545;28;20563;-64
2021/05/12 06:00:25;;;;;;;25.52;22.80;;;15.30;95.80;;;;;;5034959;28;20029;-65
2021/05/12 06:02:51;;;;;;;24.65;22.10;;;15.30;95.80;;;;;;5033616;28;20036;-65
2021/05/12 06:05:17;;;;;;;27.27;23.38;;;15.30;96.00;;;;;;5032996;28;20072;-65
2021/05/12 06:07:42;;;;;;;26.17;23.00;;;15.40;95.70;;;;;;5033066;28;20477;-64
2021/05/12 06:10:09;;;;;;;25.27;22.58;;;15.20;95.90;;;;;;5032748;28;20067;-65
2021/05/12 06:12:35;;;;;;;23.70;21.20;;;15.20;96.00;;;;;;5030820;28;20044;-65
2021/05/12 06:15:01;;;;;;;21.90;19.30;;;15.30;95.20;;;;;;5032816;28;20029;-64
2021/05/12 06:17:27;;;;;;;20.08;17.98;;;15.30;94.80;;;;;;5031658;28;20049;-65
2021/05/12 06:19:54;;;;;;;21.08;18.80;;;15.30;95.10;;;;;;5032362;28;20049;-66
2021/05/12 06:22:19;;;;;;;22.05;18.83;;;15.20;94.80;;;;;;5034571;28;20171;-64
2021/05/12 06:24:45;;;;;;;22.48;19.23;;;15.00;95.10;;;;;;5033040;28;20063;-64
2021/05/12 06:27:11;;;;;;;22.35;19.88;;;14.90;95.50;;;;;;5031101;28;20513;-65
2021/05/12 06:29:40;;;;;;;22.17;19.92;;;14.70;95.90;;;;;;5032311;28;20537;-66
2021/05/12 06:32:06;;;;;;;22.05;18.40;;;14.80;95.90;;;;;;5032487;28;20026;-64
2021/05/12 06:34:34;;;;;;;23.52;19.70;;;14.90;95.70;;;;;;5032094;28;20041;-65
2021/05/12 06:37:00;;;;;;;20.92;18.67;;;15.00;95.50;;;;;;5034425;28;20033;-64
2021/05/12 06:39:25;;;;;;;21.50;19.20;;;15.00;95.60;;;;;;5034820;28;20120;-65
2021/05/12 06:41:52;;;;;;;22.83;19.50;;;14.90;95.40;;;;;;5033151;28;20464;-64
2021/05/12 06:44:18;;;;;;;23.27;20.70;;;14.70;96.00;;;;;;5032455;28;20558;-64
2021/05/12 06:46:43;;;;;;;23.20;20.23;;;14.70;96.30;;;;;;5033470;28;20116;-65
2021/05/12 06:49:09;;;;;;;25.83;20.92;;;14.60;96.10;;;;;;5033542;28;20025;-64
2021/05/12 06:51:35;;;;;;;23.65;19.45;;;14.50;96.30;;;;;;5032198;28;20083;-64
2021/05/12 06:54:00;;;;;;;26.25;21.55;;;14.60;95.80;;;;;;5032106;28;20045;-64
2021/05/12 06:56:26;;;;;;;24.52;21.35;;;14.60;95.80;;;;;;5032250;28;20037;-66
2021/05/12 06:58:51;;;;;;;27.73;20.73;;;14.60;96.00;;;;;;5031082;28;20064;-65
2021/05/12 07:01:17;;;;;;;27.05;21.52;;;14.60;96.20;;;;;;5031818;28;20050;-65
2021/05/12 07:03:43;;;;;;;23.35;20.20;;;14.60;96.10;;;;;;5032165;28;20029;-67
2021/05/12 07:06:08;;;;;;;27.80;21.63;;;14.60;96.30;;;;;;5017005;28;20488;-67
2021/05/12 07:08:37;;;;;;;28.27;22.00;;;14.50;96.50;;;;;;5032052;28;20037;-67
2021/05/12 07:11:02;;;;;;;28.33;21.20;;;14.50;96.60;;;;;;5040151;28;20107;-67
2021/05/12 07:13:28;;;;;;;27.40;21.48;;;14.40;96.30;;;;;;5031639;28;20038;-67
2021/05/12 07:15:53;;;;;;;31.15;21.60;;;14.30;96.80;;;;;;5043371;28;20100;-67
2021/05/12 07:18:19;;;;;;;27.30;20.73;;;14.30;96.50;;;;;;5031979;28;20034;-66
2021/05/12 07:20:45;;;;;;;30.63;21.67;;;14.20;96.30;;;;;;5033559;28;20512;-67
2021/05/12 07:23:19;;;;;;;31.30;21.98;;;14.00;96.90;;;;;;5036037;28;20053;-66
2021/05/12 07:25:45;;;;;;;31.65;21.75;;;13.90;97.20;;;;;;5048382;28;20104;-66
2021/05/12 07:28:11;;;;;;;32.70;23.40;;;13.80;97.40;;;;;;5049744;28;20468;-66
2021/05/12 07:30:36;;;;;;;31.73;23.50;;;13.90;97.50;;;;;;5051968;28;20051;-66
2021/05/12 07:33:02;;;;;;;29.50;21.83;;;14.10;96.90;;;;;;5051088;28;20029;-66
2021/05/12 07:35:28;;;;;;;28.40;23.00;;;14.20;96.70;;;;;;5047982;28;20064;-67
2021/05/12 07:37:54;;;;;;;30.70;22.77;;;14.30;96.70;;;;;;5051410;28;20033;-66
2021/05/12 07:40:19;;;;;;;30.60;22.92;;;14.10;97.00;;;;;;5050093;28;20044;-66
2021/05/12 07:42:46;;;;;;;32.28;23.05;;;14.20;96.80;;;;;;5040563;28;20163;-67
2021/05/12 07:45:13;;;;;;;33.50;23.20;;;14.20;96.70;;;;;;5046818;28;20037;-66
2021/05/12 07:47:39;;;;;;;33.50;24.00;;;14.00;97.10;;;;;;5051716;28;20025;-68
2021/05/12 07:50:08;;;;;;;32.80;23.70;;;14.00;97.40;;;;;;5047279;28;20025;-66
2021/05/12 07:52:34;;;;;;;30.13;23.13;;;14.00;97.40;;;;;;5051460;28;20017;-67
2021/05/12 07:54:59;;;;;;;33.47;23.88;;;14.00;97.20;;;;;;5051182;28;20032;-67
2021/05/12 07:57:25;;;;;;;33.35;24.05;;;14.00;97.30;;;;;;5050955;28;20041;-67
2021/05/12 07:59:51;;;;;;;32.95;24.05;;;14.10;97.30;;;;;;5047485;28;20083;-66
2021/05/12 08:02:16;;;;;;;33.75;25.10;;;14.10;97.10;;;;;;5048111;28;20080;-66
2021/05/12 08:04:42;;;;;;;33.40;25.67;;;14.30;97.00;;;;;;5042164;28;20033;-67
2021/05/12 08:07:07;;;;;;;31.15;24.20;;;14.30;97.00;;;;;;5047267;28;20152;-70
2021/05/12 08:09:33;;;;;;;31.92;25.40;;;14.30;96.60;;;;;;5050313;28;20037;-65
2021/05/12 08:11:59;;;;;;;31.85;25.25;;;14.20;96.60;;;;;;5034173;28;20083;-66
2021/05/12 08:14:25;;;;;;;29.50;23.92;;;14.20;96.80;;;;;;5043098;28;20037;-66
2021/05/12 08:16:50;;;;;;;30.98;24.65;;;14.30;96.90;;;;;;5030515;28;20092;-66
2021/05/12 08:19:16;;;;;;;30.80;24.70;;;14.20;96.60;;;;;;5031141;28;20115;-65
2021/05/12 08:21:43;;;;;;;29.30;23.95;;;14.10;96.60;;;;;;5032041;28;20116;-65
2021/05/12 08:24:09;;;;;;;29.40;24.88;;;14.10;96.70;;;;;;5040779;28;20550;-66
2021/05/12 08:26:34;;;;;;;31.27;25.25;;;14.10;96.50;;;;;;5041195;28;20041;-67
2021/05/12 08:29:02;;;;;;;33.22;26.52;;;14.20;96.40;;;;;;5031259;28;20091;-67
2021/05/12 08:31:29;;;;;;;28.10;24.20;;;14.10;97.10;;;;;;5030741;28;20084;-66
2021/05/12 08:33:55;;;;;;;34.08;28.15;;;14.20;96.70;;;;;;5031199;28;20125;-67
2021/05/12 08:36:21;;;;;;;30.38;24.75;;;14.30;96.60;;;;;;5034699;28;20056;-67
2021/05/12 08:38:46;;;;;;;29.92;24.42;;;14.20;96.40;;;;;;5034791;28;20052;-66
2021/05/12 08:41:17;;;;;;;28.10;23.23;;;14.10;96.40;;;;;;5035262;28;20021;-65
2021/05/12 08:43:43;;;;;;;26.45;22.80;;;14.20;96.10;;;;;;5035011;28;20041;-67
2021/05/12 08:46:10;;;;;;;27.52;20.65;;;14.00;96.30;;;;;;5034349;28;20029;-65
2021/05/12 08:48:38;;;;;;;26.52;21.52;;;14.00;95.90;;;;;;5033968;28;20100;-66
2021/05/12 08:51:07;;;;;;;26.70;22.60;;;13.90;96.30;;;;;;5045906;28;20037;-67
2021/05/12 08:53:33;;;;;;;29.85;21.95;;;13.90;96.30;;;;;;5047087;28;20080;-66
2021/05/12 08:56:00;;;;;;;28.92;22.52;;;14.00;96.40;;;;;;5048259;28;20040;-66
2021/05/12 08:58:26;;;;;;;26.27;21.40;;;13.90;96.20;;;;;;5049019;28;20041;-69
2021/05/12 09:00:53;;;;;;;29.67;22.40;;;13.90;96.30;;;;;;5043540;28;20028;-70
2021/05/12 09:03:19;;;;;;;24.55;21.27;;;13.90;96.20;;;;;;5051474;28;20034;-69
2021/05/12 09:05:45;;;;;;;27.33;22.83;;;13.90;96.40;;;;;;5046869;28;20744;-67
2021/05/12 09:08:10;;;;;;;28.90;23.13;;;14.00;96.50;;;;;;5042988;28;20037;-68
2021/05/12 09:10:36;;;;;;;28.10;22.75;;;14.10;96.20;;;;;;5050069;28;20045;-68
2021/05/12 09:13:03;;;;;;;27.33;22.63;;;14.10;96.10;;;;;;5043965;28;20024;-69
2021/05/12 09:15:30;;;;;;;29.67;23.63;;;13.90;96.50;;;;;;5051145;28;20119;-68
2021/05/12 09:18:00;;;;;;;30.38;22.17;;;14.00;96.80;;;;;;5051706;28;20725;-68
2021/05/12 09:20:40;;;;;;;28.60;22.10;;;13.90;96.70;;;;;;5051361;28;20027;-68
2021/05/12 09:23:16;;;;;;;31.63;23.98;;;13.90;96.50;;;;;;5049664;28;20056;-68
2021/05/12 09:25:53;;;;;;;32.58;24.48;;;14.00;96.60;;;;;;5043520;28;20038;-68
2021/05/12 09:28:21;;;;;;;29.50;23.63;;;14.00;96.90;;;;;;5049173;28;20087;-68
2021/05/12 09:31:00;;;;;;;30.15;23.52;;;14.10;96.70;;;;;;5042604;28;20121;-68
2021/05/12 09:33:31;;;;;;;30.83;24.00;;;14.10;96.70;;;;;;5049763;28;20032;-68
2021/05/12 09:35:58;;;;;;;29.75;23.30;;;14.30;96.50;;;;;;5042919;28;20117;-67
2021/05/12 09:38:31;;;;;;;26.00;21.58;;;14.30;96.40;;;;;;5050056;28;20490;-68
2021/05/12 09:41:00;;;;;;;29.98;23.35;;;14.30;96.40;;;;;;5044794;28;20041;-67
2021/05/12 09:43:28;;;;;;;27.58;21.63;;;14.30;96.50;;;;;;5033675;28;20477;-68
2021/05/12 09:46:13;;;;;;;28.75;22.70;;;14.10;96.40;;;;;;5032010;28;20060;-66
2021/05/12 09:48:39;;;;;;;;;;;14.10;96.70;;;;;;5032882;28;20037;-67
2021/05/12 09:51:18;;;;;;;26.85;20.33;;;14.10;96.80;;;;;;5022829;28;20304;-66
2021/05/12 09:54:07;;;;;;;27.25;21.35;;;14.10;96.50;;;;;;5034507;28;20083;-67
2021/05/12 09:57:00;;;;;;;27.40;19.77;;;14.00;96.60;;;;;;5031804;28;20385;-68
2021/05/12 09:59:26;;;;;;;26.80;19.13;;;14.00;96.40;;;;;;5032142;28;20021;-67
2021/05/12 10:01:57;;;;;;;26.42;19.13;;;14.00;96.30;;;;;;5034427;28;20064;-67
2021/05/12 10:04:43;;;;;;;28.17;19.65;;;13.90;96.80;;;;;;5045360;28;20029;-67
2021/05/12 10:07:25;;;;;;;28.08;20.63;;;14.10;96.70;;;;;;5043657;28;20195;-68
2021/05/12 10:09:56;;;;;;;26.35;19.05;;;14.00;96.70;;;;;;5033993;28;20033;-66
2021/05/12 10:12:23;;;;;;;23.52;17.77;;;14.00;96.50;;;;;;5031053;28;20038;-66
2021/05/12 10:14:51;;;;;;;24.45;18.63;;;14.00;96.40;;;;;;5032842;28;20048;-66
2021/05/12 10:17:18;;;;;;;25.95;18.50;;;14.00;96.50;;;;;;5032628;28;20029;-66
2021/05/12 10:19:45;;;;;;;25.50;18.00;;;14.00;96.20;;;;;;5032981;28;20045;-65
2021/05/12 10:22:12;;;;;;;25.10;18.25;;;14.00;96.60;;;;;;5034243;28;20034;-65
2021/05/12 10:24:39;;;;;;;26.08;20.15;;;13.90;96.60;;;;;;5034089;28;20120;-66
2021/05/12 10:27:14;;;;;;;30.27;20.15;;;13.70;97.00;;;;;;5040315;28;20033;-66
2021/05/12 10:29:45;;;;;;;27.48;19.63;;;13.80;97.10;;;;;;5033226;28;20021;-65
2021/05/12 10:32:42;;;;;;;27.73;20.00;;;13.80;97.20;;;;;;5040841;28;20037;-66
2021/05/12 10:35:14;;;;;;;30.38;20.88;;;13.80;97.10;;;;;;5042687;28;20069;-66
2021/05/12 10:37:47;;;;;;;28.98;20.77;;;13.80;97.20;;;;;;5050784;28;20059;-66
2021/05/12 10:40:20;;;;;;;26.95;20.60;;;13.80;97.10;;;;;;5046318;28;20105;-66
2021/05/12 10:43:12;;;;;;;29.63;19.63;;;13.80;97.30;;;;;;5046050;28;20029;-66
2021/05/12 10:45:39;;;;;;;30.17;22.23;;;13.80;97.40;;;;;;5044356;28;20408;-67
2021/05/12 10:48:06;;;;;;;30.75;22.77;;;13.70;97.60;;;;;;5027091;28;20397;-65
2021/05/12 10:50:50;;;;;;;32.30;24.30;;;13.60;97.90;;;;;;5033208;28;20083;-66
2021/05/12 10:53:18;;;;;;;30.53;24.30;;;13.60;97.80;;;;;;5052207;28;20039;-66
2021/05/12 10:55:56;;;;;;;34.88;27.35;;;13.60;97.50;;;;;;5045516;28;20662;-67
2021/05/12 10:58:23;;;;;;;35.92;26.92;;;13.50;97.90;;;;;;5028312;28;20060;-67
2021/05/12 11:00:57;;;;;;;35.63;27.55;;;13.50;97.70;;;;;;5035788;28;20146;-66
2021/05/12 11:03:24;;;;;;;36.63;28.70;;;13.50;97.60;;;;;;5027314;28;20044;-67
2021/05/12 11:05:52;;;;;;;34.88;27.83;;;13.50;97.50;;;;;;5034030;28;20042;-68
2021/05/12 11:08:22;;;;;;;35.67;28.30;;;13.50;97.80;;;;;;5031293;28;20030;-70
2021/05/12 11:11:06;;;;;;;34.58;28.35;;;13.70;97.70;;;;;;5033936;28;20045;-69
2021/05/12 11:13:34;;;;;;;34.58;27.17;;;13.70;97.30;;;;;;5025558;28;20041;-68
2021/05/12 11:16:03;;;;;;;32.78;27.55;;;13.90;97.10;;;;;;5038023;28;20116;-68
2021/05/12 11:18:34;;;;;;;33.53;28.27;;;13.90;97.10;;;;;;5034083;28;20040;-68
2021/05/12 11:24:13;;;;;;;31.70;26.90;;;13.90;97.00;;;;;;5047938;28;20025;-68
2021/05/12 11:32:09;;;;;;;31.98;26.00;;;14.00;96.60;;;;;;5034948;28;20037;-72
2021/05/12 11:34:36;;;;;;;28.40;24.48;;;14.00;96.70;;;;;;5032419;28;20623;-71
2021/05/12 11:37:10;;;;;;;31.55;25.70;;;14.00;97.00;;;;;;5041256;28;20561;-71
2021/05/12 11:39:36;;;;;;;29.27;24.73;;;13.90;96.90;;;;;;5034679;28;20037;-70
2021/05/12 11:42:02;;;;;;;27.10;23.75;;;14.00;96.90;;;;;;5036725;28;20047;-70
2021/05/12 11:44:28;;;;;;;28.63;24.25;;;14.10;96.80;;;;;;5033079;28;20042;-68
2021/05/12 11:46:54;;;;;;;27.75;24.13;;;14.10;96.60;;;;;;5043552;28;20573;-70
2021/05/12 11:49:28;;;;;;;30.00;24.80;;;14.10;96.30;;;;;;5030945;28;20032;-72
2021/05/12 11:51:58;;;;;;;27.65;24.67;;;14.10;96.60;;;;;;5034511;28;20104;-72
2021/05/12 11:54:27;;;;;;;30.70;24.38;;;14.30;96.50;;;;;;4999486;28;20505;-71
2021/05/12 11:56:58;;;;;;;25.98;23.27;;;14.20;96.20;;;;;;5026563;28;20030;-70
2021/05/12 11:59:30;;;;;;;28.63;25.23;;;14.20;96.10;;;;;;5031585;28;20037;-71
2021/05/12 12:02:10;;;;;;;27.73;24.65;;;14.10;96.70;;;;;;5032965;28;20021;-70
2021/05/12 12:07:07;;;;;;;27.48;24.35;;;13.80;96.70;;;;;;5037938;28;20378;-70
2021/05/12 12:09:35;;;;;;;28.10;24.98;;;13.90;96.80;;;;;;5033786;28;20034;-70
2021/05/12 12:12:01;;;;;;;26.38;23.58;;;13.80;97.00;;;;;;5040883;28;20030;-71
2021/05/12 12:14:35;;;;;;;24.02;21.55;;;13.80;97.10;;;;;;5040290;28;20469;-68
2021/05/12 12:17:07;;;;;;;;;;;13.70;97.10;;;;;;5026038;28;20129;-70
2021/05/12 12:19:33;;;;;;;24.90;22.23;;;13.70;97.00;;;;;;5053435;28;19916;-68
2021/05/12 12:21:59;;;;;;;25.95;22.80;;;13.60;97.20;;;;;;5040201;28;20363;-69
2021/05/12 12:24:27;;;;;;;26.38;23.42;;;13.70;97.30;;;;;;5038842;28;20036;-68
2021/05/12 12:26:55;;;;;;;22.33;19.70;;;13.60;97.60;;;;;;5047782;28;20119;-70
2021/05/12 12:29:26;;;;;;;23.20;20.80;;;13.70;97.10;;;;;;5035624;28;20056;-68
2021/05/12 12:32:05;;;;;;;22.48;20.10;;;13.70;97.20;;;;;;5043280;28;20041;-71
2021/05/12 12:34:34;;;;;;;23.20;20.23;;;13.70;97.00;;;;;;5038989;28;20041;-69
2021/05/12 12:37:02;;;;;;;22.33;19.50;;;13.70;96.70;;;;;;5036642;28;20077;-71
2021/05/12 12:39:46;;;;;;;20.55;18.45;;;13.70;96.90;;;;;;5038774;28;20033;-70
2021/05/12 12:42:14;;;;;;;20.75;18.55;;;13.90;96.60;;;;;;5045133;28;20037;-71